sensor_id;sensor_type;location;lat;lon;timestamp;P1;durP1;ratioP1;P2;durP2;ratioP2
65387;SDS011;51992;53.528;49.474;2022-12-18T00:02:15;17.92;;;9.27;;
65387;SDS011;51992;53.528;49.474;2022-12-18T00:04:40;17.23;;;9.77;;
65387;SDS011;51992;53.528;49.474;2022-12-18T00:07:06;20.77;;;10.65;;
65387;SDS011;51992;53.528;49.474;2022-12-18T00:09:32;17.88;;;8.75;;
65387;SDS011;51992;53.528;49.474;2022-12-18T00:11:57;14.77;;;8.57;;
65387;SDS011;51992;53.528;49.474;2022-12-18T00:14:23;10.48;;;6.32;;
65387;SDS011;51992;53.528;49.474;2022-12-18T00:16:49;17.70;;;9.25;;
65387;SDS011;51992;53.528;49.474;2022-12-18T00:19:14;20.90;;;7.40;;
65387;SDS011;51992;53.528;49.474;2022-12-18T00:21:41;13.55;;;5.32;;
65387;SDS011;51992;53.528;49.474;2022-12-18T00:24:07;13.73;;;6.60;;
65387;SDS011;51992;53.528;49.474;2022-12-18T00:26:34;6.97;;;4.93;;
65387;SDS011;51992;53.528;49.474;2022-12-18T00:29:04;14.35;;;6.47;;
65387;SDS011;51992;53.528;49.474;2022-12-18T00:31:30;7.28;;;4.38;;
65387;SDS011;51992;53.528;49.474;2022-12-18T00:33:56;13.10;;;6.85;;
65387;SDS011;51992;53.528;49.474;2022-12-18T00:36:23;16.75;;;6.32;;
65387;SDS011;51992;53.528;49.474;2022-12-18T00:38:49;5.88;;;4.10;;
65387;SDS011;51992;53.528;49.474;2022-12-18T00:41:16;12.15;;;6.97;;
65387;SDS011;51992;53.528;49.474;2022-12-18T00:44:02;5.22;;;3.20;;
65387;SDS011;51992;53.528;49.474;2022-12-18T00:46:28;4.65;;;2.78;;
65387;SDS011;51992;53.528;49.474;2022-12-18T00:48:53;13.02;;;5.80;;
65387;SDS011;51992;53.528;49.474;2022-12-18T00:51:19;11.32;;;5.72;;
65387;SDS011;51992;53.528;49.474;2022-12-18T00:53:45;10.75;;;4.18;;
65387;SDS011;51992;53.528;49.474;2022-12-18T00:56:10;7.38;;;4.45;;
65387;SDS011;51992;53.528;49.474;2022-12-18T00:58:36;12.07;;;6.75;;
65387;SDS011;51992;53.528;49.474;2022-12-18T01:01:03;14.60;;;6.75;;
65387;SDS011;51992;53.528;49.474;2022-12-18T01:03:29;8.55;;;5.43;;
65387;SDS011;51992;53.528;49.474;2022-12-18T01:05:55;10.70;;;5.60;;
65387;SDS011;51992;53.528;49.474;2022-12-18T01:08:21;15.52;;;6.93;;
65387;SDS011;51992;53.528;49.474;2022-12-18T01:10:46;12.07;;;7.22;;
65387;SDS011;51992;53.528;49.474;2022-12-18T01:13:12;5.15;;;2.97;;
65387;SDS011;51992;53.528;49.474;2022-12-18T01:15:38;13.27;;;7.20;;
65387;SDS011;51992;53.528;49.474;2022-12-18T01:18:05;14.60;;;7.20;;
65387;SDS011;51992;53.528;49.474;2022-12-18T01:20:31;18.27;;;7.10;;
65387;SDS011;51992;53.528;49.474;2022-12-18T01:22:57;9.05;;;5.95;;
65387;SDS011;51992;53.528;49.474;2022-12-18T01:25:23;10.48;;;4.50;;
65387;SDS011;51992;53.528;49.474;2022-12-18T01:27:49;15.27;;;6.90;;
65387;SDS011;51992;53.528;49.474;2022-12-18T01:30:14;13.18;;;8.20;;
65387;SDS011;51992;53.528;49.474;2022-12-18T01:32:40;11.23;;;5.82;;
65387;SDS011;51992;53.528;49.474;2022-12-18T01:35:06;11.80;;;6.22;;
65387;SDS011;51992;53.528;49.474;2022-12-18T01:37:32;10.02;;;6.88;;
65387;SDS011;51992;53.528;49.474;2022-12-18T01:39:57;11.10;;;7.40;;
65387;SDS011;51992;53.528;49.474;2022-12-18T01:42:23;12.30;;;7.95;;
65387;SDS011;51992;53.528;49.474;2022-12-18T01:47:29;13.45;;;6.50;;
65387;SDS011;51992;53.528;49.474;2022-12-18T01:49:56;10.43;;;6.38;;
65387;SDS011;51992;53.528;49.474;2022-12-18T01:52:23;6.22;;;5.40;;
65387;SDS011;51992;53.528;49.474;2022-12-18T01:54:49;3.80;;;2.88;;
65387;SDS011;51992;53.528;49.474;2022-12-18T01:57:16;7.28;;;4.63;;
65387;SDS011;51992;53.528;49.474;2022-12-18T01:59:42;7.40;;;4.85;;
65387;SDS011;51992;53.528;49.474;2022-12-18T02:02:09;9.20;;;5.97;;
65387;SDS011;51992;53.528;49.474;2022-12-18T02:04:36;9.63;;;5.20;;
65387;SDS011;51992;53.528;49.474;2022-12-18T02:07:14;5.68;;;3.63;;
65387;SDS011;51992;53.528;49.474;2022-12-18T02:09:46;7.97;;;5.22;;
65387;SDS011;51992;53.528;49.474;2022-12-18T02:12:13;7.87;;;4.97;;
65387;SDS011;51992;53.528;49.474;2022-12-18T02:15:00;13.18;;;6.30;;
65387;SDS011;51992;53.528;49.474;2022-12-18T02:28:13;9.57;;;4.95;;
65387;SDS011;51992;53.528;49.474;2022-12-18T02:30:41;8.25;;;5.22;;
65387;SDS011;51992;53.528;49.474;2022-12-18T02:33:08;4.82;;;3.42;;
65387;SDS011;51992;53.528;49.474;2022-12-18T02:35:35;4.25;;;3.03;;
65387;SDS011;51992;53.528;49.474;2022-12-18T02:38:02;8.38;;;5.55;;
65387;SDS011;51992;53.528;49.474;2022-12-18T02:40:28;8.50;;;4.20;;
65387;SDS011;51992;53.528;49.474;2022-12-18T02:42:54;8.00;;;4.78;;
65387;SDS011;51992;53.528;49.474;2022-12-18T02:45:20;10.98;;;5.57;;
65387;SDS011;51992;53.528;49.474;2022-12-18T02:47:47;9.25;;;5.75;;
65387;SDS011;51992;53.528;49.474;2022-12-18T02:50:17;8.48;;;4.18;;
65387;SDS011;51992;53.528;49.474;2022-12-18T02:58:03;9.23;;;4.90;;
65387;SDS011;51992;53.528;49.474;2022-12-18T03:00:45;6.25;;;4.35;;
65387;SDS011;51992;53.528;49.474;2022-12-18T03:03:15;9.52;;;5.40;;
65387;SDS011;51992;53.528;49.474;2022-12-18T03:05:47;8.85;;;5.45;;
65387;SDS011;51992;53.528;49.474;2022-12-18T03:08:27;11.38;;;5.80;;
65387;SDS011;51992;53.528;49.474;2022-12-18T03:11:04;10.45;;;5.53;;
65387;SDS011;51992;53.528;49.474;2022-12-18T03:13:43;7.03;;;4.47;;
65387;SDS011;51992;53.528;49.474;2022-12-18T03:16:11;7.68;;;4.70;;
65387;SDS011;51992;53.528;49.474;2022-12-18T03:18:40;5.53;;;2.97;;
65387;SDS011;51992;53.528;49.474;2022-12-18T03:21:07;5.03;;;4.53;;
65387;SDS011;51992;53.528;49.474;2022-12-18T03:23:35;7.93;;;4.40;;
65387;SDS011;51992;53.528;49.474;2022-12-18T03:26:04;7.38;;;5.03;;
65387;SDS011;51992;53.528;49.474;2022-12-18T03:28:30;6.88;;;4.97;;
65387;SDS011;51992;53.528;49.474;2022-12-18T03:30:57;7.15;;;4.60;;
65387;SDS011;51992;53.528;49.474;2022-12-18T03:33:28;9.52;;;4.93;;
65387;SDS011;51992;53.528;49.474;2022-12-18T03:35:55;5.30;;;3.73;;
65387;SDS011;51992;53.528;49.474;2022-12-18T03:38:21;7.78;;;4.80;;
65387;SDS011;51992;53.528;49.474;2022-12-18T03:40:56;7.28;;;4.88;;
65387;SDS011;51992;53.528;49.474;2022-12-18T03:46:01;3.70;;;3.15;;
65387;SDS011;51992;53.528;49.474;2022-12-18T03:48:29;3.25;;;2.65;;
65387;SDS011;51992;53.528;49.474;2022-12-18T03:51:13;2.42;;;2.22;;
65387;SDS011;51992;53.528;49.474;2022-12-18T03:56:09;6.00;;;3.97;;
65387;SDS011;51992;53.528;49.474;2022-12-18T03:58:35;7.55;;;3.95;;
65387;SDS011;51992;53.528;49.474;2022-12-18T04:01:03;6.03;;;3.75;;
65387;SDS011;51992;53.528;49.474;2022-12-18T04:03:33;9.37;;;3.53;;
65387;SDS011;51992;53.528;49.474;2022-12-18T04:05:59;5.13;;;3.10;;
65387;SDS011;51992;53.528;49.474;2022-12-18T04:08:26;0.30;;;0.30;;
65387;SDS011;51992;53.528;49.474;2022-12-18T04:10:52;0.47;;;0.47;;
65387;SDS011;51992;53.528;49.474;2022-12-18T04:13:24;0.30;;;0.30;;
65387;SDS011;51992;53.528;49.474;2022-12-18T04:15:52;0.30;;;0.30;;
65387;SDS011;51992;53.528;49.474;2022-12-18T04:18:18;0.28;;;0.28;;
65387;SDS011;51992;53.528;49.474;2022-12-18T04:20:44;0.40;;;0.20;;
65387;SDS011;51992;53.528;49.474;2022-12-18T04:23:10;0.05;;;0.05;;
65387;SDS011;51992;53.528;49.474;2022-12-18T04:25:36;0.65;;;0.65;;
65387;SDS011;51992;53.528;49.474;2022-12-18T04:28:02;0.45;;;0.45;;
65387;SDS011;51992;53.528;49.474;2022-12-18T04:30:27;0.47;;;0.47;;
65387;SDS011;51992;53.528;49.474;2022-12-18T04:32:53;0.13;;;0.08;;
65387;SDS011;51992;53.528;49.474;2022-12-18T04:35:19;0.30;;;0.30;;
65387;SDS011;51992;53.528;49.474;2022-12-18T04:37:45;0.22;;;0.22;;
65387;SDS011;51992;53.528;49.474;2022-12-18T04:40:11;0.10;;;0.10;;
65387;SDS011;51992;53.528;49.474;2022-12-18T04:42:36;0.32;;;0.32;;
65387;SDS011;51992;53.528;49.474;2022-12-18T04:45:02;0.25;;;0.25;;
65387;SDS011;51992;53.528;49.474;2022-12-18T04:47:28;0.10;;;0.10;;
65387;SDS011;51992;53.528;49.474;2022-12-18T04:49:54;0.00;;;0.00;;
65387;SDS011;51992;53.528;49.474;2022-12-18T04:52:20;0.25;;;0.25;;
65387;SDS011;51992;53.528;49.474;2022-12-18T04:54:45;0.15;;;0.15;;
65387;SDS011;51992;53.528;49.474;2022-12-18T04:57:11;0.25;;;0.25;;
65387;SDS011;51992;53.528;49.474;2022-12-18T04:59:37;0.00;;;0.00;;
65387;SDS011;51992;53.528;49.474;2022-12-18T05:02:02;0.30;;;0.30;;
65387;SDS011;51992;53.528;49.474;2022-12-18T05:04:28;0.35;;;0.35;;
65387;SDS011;51992;53.528;49.474;2022-12-18T05:06:54;0.20;;;0.20;;
65387;SDS011;51992;53.528;49.474;2022-12-18T05:09:19;0.17;;;0.17;;
65387;SDS011;51992;53.528;49.474;2022-12-18T05:11:45;1.35;;;0.57;;
65387;SDS011;51992;53.528;49.474;2022-12-18T05:14:12;0.38;;;0.38;;
65387;SDS011;51992;53.528;49.474;2022-12-18T05:16:37;0.00;;;0.00;;
65387;SDS011;51992;53.528;49.474;2022-12-18T05:19:03;2.10;;;0.55;;
65387;SDS011;51992;53.528;49.474;2022-12-18T05:21:29;0.10;;;0.10;;
65387;SDS011;51992;53.528;49.474;2022-12-18T05:23:54;0.17;;;0.17;;
65387;SDS011;51992;53.528;49.474;2022-12-18T05:26:20;0.13;;;0.13;;
65387;SDS011;51992;53.528;49.474;2022-12-18T05:28:46;0.43;;;0.43;;
65387;SDS011;51992;53.528;49.474;2022-12-18T05:31:12;0.20;;;0.20;;
65387;SDS011;51992;53.528;49.474;2022-12-18T05:33:38;0.80;;;0.80;;
65387;SDS011;51992;53.528;49.474;2022-12-18T05:36:05;0.35;;;0.32;;
65387;SDS011;51992;53.528;49.474;2022-12-18T05:38:32;0.15;;;0.15;;
65387;SDS011;51992;53.528;49.474;2022-12-18T05:40:58;0.13;;;0.13;;
65387;SDS011;51992;53.528;49.474;2022-12-18T05:43:24;0.00;;;0.00;;
65387;SDS011;51992;53.528;49.474;2022-12-18T05:45:50;0.10;;;0.10;;
65387;SDS011;51992;53.528;49.474;2022-12-18T05:48:16;0.22;;;0.22;;
65387;SDS011;51992;53.528;49.474;2022-12-18T05:50:43;0.70;;;0.68;;
65387;SDS011;51992;53.528;49.474;2022-12-18T05:53:11;0.20;;;0.20;;
65387;SDS011;51992;53.528;49.474;2022-12-18T05:55:37;0.40;;;0.40;;
65387;SDS011;51992;53.528;49.474;2022-12-18T05:58:03;1.00;;;0.45;;
65387;SDS011;51992;53.528;49.474;2022-12-18T06:00:30;0.10;;;0.10;;
65387;SDS011;51992;53.528;49.474;2022-12-18T06:02:56;0.17;;;0.17;;
65387;SDS011;51992;53.528;49.474;2022-12-18T06:05:21;0.52;;;0.52;;
65387;SDS011;51992;53.528;49.474;2022-12-18T06:07:47;0.25;;;0.25;;
65387;SDS011;51992;53.528;49.474;2022-12-18T06:10:13;0.47;;;0.47;;
65387;SDS011;51992;53.528;49.474;2022-12-18T06:12:38;0.52;;;0.32;;
65387;SDS011;51992;53.528;49.474;2022-12-18T06:15:05;0.05;;;0.03;;
65387;SDS011;51992;53.528;49.474;2022-12-18T06:17:31;4.20;;;3.80;;
65387;SDS011;51992;53.528;49.474;2022-12-18T06:19:57;5.18;;;3.92;;
65387;SDS011;51992;53.528;49.474;2022-12-18T06:22:23;7.63;;;6.28;;
65387;SDS011;51992;53.528;49.474;2022-12-18T06:24:49;8.82;;;6.38;;
65387;SDS011;51992;53.528;49.474;2022-12-18T06:27:14;9.80;;;7.00;;
65387;SDS011;51992;53.528;49.474;2022-12-18T06:29:40;6.50;;;4.32;;
65387;SDS011;51992;53.528;49.474;2022-12-18T06:32:06;6.05;;;4.65;;
65387;SDS011;51992;53.528;49.474;2022-12-18T06:34:32;6.95;;;5.05;;
65387;SDS011;51992;53.528;49.474;2022-12-18T06:36:58;11.25;;;7.40;;
65387;SDS011;51992;53.528;49.474;2022-12-18T06:39:24;4.78;;;4.28;;
65387;SDS011;51992;53.528;49.474;2022-12-18T06:41:50;13.05;;;8.15;;
65387;SDS011;51992;53.528;49.474;2022-12-18T06:44:16;10.93;;;7.15;;
65387;SDS011;51992;53.528;49.474;2022-12-18T06:46:41;12.98;;;7.75;;
65387;SDS011;51992;53.528;49.474;2022-12-18T06:49:07;12.27;;;6.65;;
65387;SDS011;51992;53.528;49.474;2022-12-18T06:51:34;13.52;;;7.80;;
65387;SDS011;51992;53.528;49.474;2022-12-18T06:54:00;14.43;;;8.07;;
65387;SDS011;51992;53.528;49.474;2022-12-18T06:56:26;4.07;;;3.58;;
65387;SDS011;51992;53.528;49.474;2022-12-18T06:58:52;13.60;;;9.35;;
65387;SDS011;51992;53.528;49.474;2022-12-18T07:01:18;11.38;;;7.32;;
65387;SDS011;51992;53.528;49.474;2022-12-18T07:03:43;12.38;;;9.38;;
65387;SDS011;51992;53.528;49.474;2022-12-18T07:06:13;11.07;;;7.68;;
65387;SDS011;51992;53.528;49.474;2022-12-18T07:08:39;13.15;;;7.32;;
65387;SDS011;51992;53.528;49.474;2022-12-18T07:11:06;7.28;;;4.93;;
65387;SDS011;51992;53.528;49.474;2022-12-18T07:13:31;8.07;;;5.72;;
65387;SDS011;51992;53.528;49.474;2022-12-18T07:16:04;12.60;;;8.32;;
65387;SDS011;51992;53.528;49.474;2022-12-18T07:18:30;10.68;;;6.05;;
65387;SDS011;51992;53.528;49.474;2022-12-18T07:20:56;16.30;;;8.38;;
65387;SDS011;51992;53.528;49.474;2022-12-18T07:23:21;11.75;;;7.93;;
65387;SDS011;51992;53.528;49.474;2022-12-18T07:25:47;14.50;;;9.98;;
65387;SDS011;51992;53.528;49.474;2022-12-18T07:28:13;10.85;;;7.93;;
65387;SDS011;51992;53.528;49.474;2022-12-18T07:30:40;16.58;;;10.30;;
65387;SDS011;51992;53.528;49.474;2022-12-18T07:33:05;10.30;;;5.80;;
65387;SDS011;51992;53.528;49.474;2022-12-18T07:35:32;7.13;;;5.60;;
65387;SDS011;51992;53.528;49.474;2022-12-18T07:37:58;14.48;;;8.20;;
65387;SDS011;51992;53.528;49.474;2022-12-18T07:40:26;11.70;;;7.60;;
65387;SDS011;51992;53.528;49.474;2022-12-18T07:42:52;18.42;;;9.82;;
65387;SDS011;51992;53.528;49.474;2022-12-18T07:45:17;16.70;;;8.27;;
65387;SDS011;51992;53.528;49.474;2022-12-18T07:47:43;10.60;;;6.07;;
65387;SDS011;51992;53.528;49.474;2022-12-18T07:50:09;16.50;;;9.35;;
65387;SDS011;51992;53.528;49.474;2022-12-18T07:52:34;19.35;;;10.13;;
65387;SDS011;51992;53.528;49.474;2022-12-18T07:55:00;11.13;;;6.80;;
65387;SDS011;51992;53.528;49.474;2022-12-18T07:57:26;15.32;;;9.35;;
65387;SDS011;51992;53.528;49.474;2022-12-18T07:59:52;7.50;;;4.43;;
65387;SDS011;51992;53.528;49.474;2022-12-18T08:02:17;13.35;;;7.07;;
65387;SDS011;51992;53.528;49.474;2022-12-18T08:04:43;6.35;;;5.68;;
65387;SDS011;51992;53.528;49.474;2022-12-18T08:07:09;12.15;;;6.93;;
65387;SDS011;51992;53.528;49.474;2022-12-18T08:09:34;17.98;;;9.13;;
65387;SDS011;51992;53.528;49.474;2022-12-18T08:12:00;11.82;;;7.35;;
65387;SDS011;51992;53.528;49.474;2022-12-18T08:14:26;10.55;;;6.88;;
65387;SDS011;51992;53.528;49.474;2022-12-18T08:16:51;18.45;;;8.63;;
65387;SDS011;51992;53.528;49.474;2022-12-18T08:19:17;15.30;;;9.60;;
65387;SDS011;51992;53.528;49.474;2022-12-18T08:21:43;5.40;;;4.80;;
65387;SDS011;51992;53.528;49.474;2022-12-18T08:24:08;5.97;;;4.75;;
65387;SDS011;51992;53.528;49.474;2022-12-18T08:26:34;11.25;;;6.60;;
65387;SDS011;51992;53.528;49.474;2022-12-18T08:29:00;11.23;;;7.38;;
65387;SDS011;51992;53.528;49.474;2022-12-18T08:31:26;13.13;;;8.38;;
65387;SDS011;51992;53.528;49.474;2022-12-18T08:33:53;14.15;;;9.57;;
65387;SDS011;51992;53.528;49.474;2022-12-18T08:36:19;17.08;;;8.75;;
65387;SDS011;51992;53.528;49.474;2022-12-18T08:38:48;13.52;;;8.77;;
65387;SDS011;51992;53.528;49.474;2022-12-18T08:41:14;10.77;;;5.40;;
65387;SDS011;51992;53.528;49.474;2022-12-18T08:43:40;7.82;;;5.25;;
65387;SDS011;51992;53.528;49.474;2022-12-18T08:46:25;10.73;;;5.57;;
65387;SDS011;51992;53.528;49.474;2022-12-18T08:48:52;6.65;;;5.03;;
65387;SDS011;51992;53.528;49.474;2022-12-18T08:51:18;9.95;;;6.35;;
65387;SDS011;51992;53.528;49.474;2022-12-18T08:53:43;6.78;;;4.75;;
65387;SDS011;51992;53.528;49.474;2022-12-18T08:56:12;9.45;;;6.97;;
65387;SDS011;51992;53.528;49.474;2022-12-18T08:58:38;9.98;;;6.35;;
65387;SDS011;51992;53.528;49.474;2022-12-18T09:01:04;14.65;;;7.72;;
65387;SDS011;51992;53.528;49.474;2022-12-18T09:03:31;5.60;;;4.38;;
65387;SDS011;51992;53.528;49.474;2022-12-18T09:05:57;7.95;;;5.30;;
65387;SDS011;51992;53.528;49.474;2022-12-18T09:08:22;8.20;;;6.07;;
65387;SDS011;51992;53.528;49.474;2022-12-18T09:10:49;8.85;;;6.55;;
65387;SDS011;51992;53.528;49.474;2022-12-18T09:13:15;6.75;;;3.28;;
65387;SDS011;51992;53.528;49.474;2022-12-18T09:15:42;7.53;;;5.03;;
65387;SDS011;51992;53.528;49.474;2022-12-18T09:18:08;8.43;;;5.40;;
65387;SDS011;51992;53.528;49.474;2022-12-18T09:20:34;7.03;;;4.78;;
65387;SDS011;51992;53.528;49.474;2022-12-18T09:23:00;9.02;;;6.82;;
65387;SDS011;51992;53.528;49.474;2022-12-18T09:25:26;9.93;;;6.82;;
65387;SDS011;51992;53.528;49.474;2022-12-18T09:27:57;7.28;;;5.25;;
65387;SDS011;51992;53.528;49.474;2022-12-18T09:30:22;8.73;;;5.63;;
65387;SDS011;51992;53.528;49.474;2022-12-18T09:32:48;7.80;;;5.82;;
65387;SDS011;51992;53.528;49.474;2022-12-18T09:35:14;7.57;;;6.25;;
65387;SDS011;51992;53.528;49.474;2022-12-18T09:37:39;8.25;;;6.45;;
65387;SDS011;51992;53.528;49.474;2022-12-18T09:40:12;6.90;;;5.45;;
65387;SDS011;51992;53.528;49.474;2022-12-18T09:42:38;9.55;;;7.30;;
65387;SDS011;51992;53.528;49.474;2022-12-18T09:45:03;8.38;;;5.78;;
65387;SDS011;51992;53.528;49.474;2022-12-18T09:47:34;7.13;;;5.40;;
65387;SDS011;51992;53.528;49.474;2022-12-18T09:50:02;9.80;;;6.93;;
65387;SDS011;51992;53.528;49.474;2022-12-18T09:52:41;7.03;;;5.68;;
65387;SDS011;51992;53.528;49.474;2022-12-18T09:55:31;5.72;;;4.97;;
65387;SDS011;51992;53.528;49.474;2022-12-18T09:57:56;6.30;;;5.28;;
65387;SDS011;51992;53.528;49.474;2022-12-18T10:00:23;9.23;;;4.82;;
65387;SDS011;51992;53.528;49.474;2022-12-18T10:02:49;5.45;;;3.58;;
65387;SDS011;51992;53.528;49.474;2022-12-18T10:05:17;7.22;;;4.78;;
65387;SDS011;51992;53.528;49.474;2022-12-18T10:13:14;8.15;;;5.50;;
65387;SDS011;51992;53.528;49.474;2022-12-18T10:15:41;9.50;;;6.18;;
65387;SDS011;51992;53.528;49.474;2022-12-18T10:20:42;8.27;;;6.60;;
65387;SDS011;51992;53.528;49.474;2022-12-18T10:26:10;8.30;;;7.07;;
65387;SDS011;51992;53.528;49.474;2022-12-18T10:28:30;8.15;;;7.03;;
65387;SDS011;51992;53.528;49.474;2022-12-18T10:30:56;9.30;;;6.30;;
65387;SDS011;51992;53.528;49.474;2022-12-18T10:33:23;9.20;;;6.72;;
65387;SDS011;51992;53.528;49.474;2022-12-18T10:35:52;7.43;;;5.72;;
65387;SDS011;51992;53.528;49.474;2022-12-18T10:40:48;11.15;;;7.40;;
65387;SDS011;51992;53.528;49.474;2022-12-18T10:43:14;8.20;;;5.93;;
65387;SDS011;51992;53.528;49.474;2022-12-18T10:45:41;7.60;;;6.07;;
65387;SDS011;51992;53.528;49.474;2022-12-18T10:48:22;8.43;;;6.07;;
65387;SDS011;51992;53.528;49.474;2022-12-18T10:50:49;9.00;;;5.85;;
65387;SDS011;51992;53.528;49.474;2022-12-18T10:53:21;7.20;;;5.47;;
65387;SDS011;51992;53.528;49.474;2022-12-18T10:55:48;8.70;;;6.83;;
65387;SDS011;51992;53.528;49.474;2022-12-18T10:58:24;8.40;;;4.50;;
65387;SDS011;51992;53.528;49.474;2022-12-18T11:06:08;6.30;;;4.55;;
65387;SDS011;51992;53.528;49.474;2022-12-18T11:08:34;6.07;;;5.00;;
65387;SDS011;51992;53.528;49.474;2022-12-18T11:11:00;5.32;;;3.63;;
65387;SDS011;51992;53.528;49.474;2022-12-18T11:13:26;5.47;;;4.40;;
65387;SDS011;51992;53.528;49.474;2022-12-18T11:15:52;5.95;;;4.88;;
65387;SDS011;51992;53.528;49.474;2022-12-18T11:18:28;4.85;;;4.25;;
65387;SDS011;51992;53.528;49.474;2022-12-18T11:21:11;7.53;;;5.07;;
65387;SDS011;51992;53.528;49.474;2022-12-18T11:23:37;5.60;;;4.82;;
65387;SDS011;51992;53.528;49.474;2022-12-18T11:26:10;7.60;;;5.50;;
65387;SDS011;51992;53.528;49.474;2022-12-18T11:31:09;9.02;;;6.35;;
65387;SDS011;51992;53.528;49.474;2022-12-18T11:33:41;7.63;;;5.60;;
65387;SDS011;51992;53.528;49.474;2022-12-18T11:36:07;8.40;;;6.95;;
65387;SDS011;51992;53.528;49.474;2022-12-18T11:38:35;9.05;;;7.28;;
65387;SDS011;51992;53.528;49.474;2022-12-18T11:43:52;10.52;;;6.53;;
65387;SDS011;51992;53.528;49.474;2022-12-18T11:46:23;9.80;;;7.60;;
65387;SDS011;51992;53.528;49.474;2022-12-18T11:48:58;9.93;;;7.55;;
65387;SDS011;51992;53.528;49.474;2022-12-18T11:51:29;12.38;;;8.43;;
65387;SDS011;51992;53.528;49.474;2022-12-18T11:53:57;9.10;;;7.15;;
65387;SDS011;51992;53.528;49.474;2022-12-18T12:01:46;14.30;;;9.68;;
65387;SDS011;51992;53.528;49.474;2022-12-18T12:16:55;13.93;;;9.82;;
65387;SDS011;51992;53.528;49.474;2022-12-18T12:22:10;12.40;;;9.52;;
65387;SDS011;51992;53.528;49.474;2022-12-18T12:27:22;11.52;;;8.18;;
65387;SDS011;51992;53.528;49.474;2022-12-18T12:38:05;10.27;;;8.30;;
65387;SDS011;51992;53.528;49.474;2022-12-18T12:40:33;10.75;;;7.63;;
65387;SDS011;51992;53.528;49.474;2022-12-18T12:43:01;10.73;;;7.40;;
65387;SDS011;51992;53.528;49.474;2022-12-18T12:45:48;4.18;;;3.78;;
65387;SDS011;51992;53.528;49.474;2022-12-18T12:48:28;7.38;;;5.65;;
65387;SDS011;51992;53.528;49.474;2022-12-18T12:50:56;11.48;;;7.53;;
65387;SDS011;51992;53.528;49.474;2022-12-18T12:53:25;6.93;;;4.85;;
65387;SDS011;51992;53.528;49.474;2022-12-18T12:55:52;9.52;;;6.25;;
65387;SDS011;51992;53.528;49.474;2022-12-18T13:03:45;9.10;;;6.40;;
65387;SDS011;51992;53.528;49.474;2022-12-18T13:06:19;6.18;;;5.50;;
65387;SDS011;51992;53.528;49.474;2022-12-18T13:08:58;6.50;;;4.85;;
65387;SDS011;51992;53.528;49.474;2022-12-18T13:11:31;11.02;;;7.28;;
65387;SDS011;51992;53.528;49.474;2022-12-18T13:16:41;9.13;;;6.97;;
65387;SDS011;51992;53.528;49.474;2022-12-18T13:19:18;8.98;;;7.43;;
65387;SDS011;51992;53.528;49.474;2022-12-18T13:21:51;9.82;;;7.25;;
65387;SDS011;51992;53.528;49.474;2022-12-18T13:24:27;9.77;;;6.45;;
65387;SDS011;51992;53.528;49.474;2022-12-18T13:26:55;9.00;;;6.00;;
65387;SDS011;51992;53.528;49.474;2022-12-18T13:29:39;7.07;;;5.20;;
65387;SDS011;51992;53.528;49.474;2022-12-18T13:32:15;8.45;;;6.10;;
65387;SDS011;51992;53.528;49.474;2022-12-18T13:34:44;8.25;;;6.05;;
65387;SDS011;51992;53.528;49.474;2022-12-18T13:48:29;7.18;;;5.50;;
65387;SDS011;51992;53.528;49.474;2022-12-18T13:51:06;5.13;;;4.00;;
65387;SDS011;51992;53.528;49.474;2022-12-18T13:53:38;7.03;;;5.07;;
65387;SDS011;51992;53.528;49.474;2022-12-18T13:56:04;3.60;;;3.25;;
65387;SDS011;51992;53.528;49.474;2022-12-18T13:58:30;7.90;;;4.78;;
65387;SDS011;51992;53.528;49.474;2022-12-18T14:00:56;5.03;;;4.32;;
65387;SDS011;51992;53.528;49.474;2022-12-18T14:03:26;5.05;;;4.25;;
65387;SDS011;51992;53.528;49.474;2022-12-18T14:05:53;3.28;;;2.97;;
65387;SDS011;51992;53.528;49.474;2022-12-18T14:08:19;4.82;;;4.20;;
65387;SDS011;51992;53.528;49.474;2022-12-18T14:10:46;4.90;;;4.47;;
65387;SDS011;51992;53.528;49.474;2022-12-18T14:13:31;6.28;;;4.57;;
65387;SDS011;51992;53.528;49.474;2022-12-18T14:15:57;5.32;;;3.75;;
65387;SDS011;51992;53.528;49.474;2022-12-18T14:21:16;4.75;;;4.03;;
65387;SDS011;51992;53.528;49.474;2022-12-18T14:23:42;5.15;;;4.38;;
65387;SDS011;51992;53.528;49.474;2022-12-18T14:26:22;4.88;;;4.40;;
65387;SDS011;51992;53.528;49.474;2022-12-18T14:28:48;3.30;;;3.00;;
65387;SDS011;51992;53.528;49.474;2022-12-18T14:31:21;3.22;;;2.97;;
65387;SDS011;51992;53.528;49.474;2022-12-18T14:33:47;3.33;;;2.50;;
65387;SDS011;51992;53.528;49.474;2022-12-18T14:36:15;4.47;;;4.07;;
65387;SDS011;51992;53.528;49.474;2022-12-18T14:38:41;5.25;;;4.35;;
65387;SDS011;51992;53.528;49.474;2022-12-18T14:41:11;5.28;;;3.10;;
65387;SDS011;51992;53.528;49.474;2022-12-18T14:43:38;4.35;;;3.80;;
65387;SDS011;51992;53.528;49.474;2022-12-18T14:46:25;4.88;;;4.10;;
65387;SDS011;51992;53.528;49.474;2022-12-18T14:48:50;4.75;;;3.95;;
65387;SDS011;51992;53.528;49.474;2022-12-18T14:51:16;4.45;;;4.05;;
65387;SDS011;51992;53.528;49.474;2022-12-18T14:53:44;3.90;;;3.47;;
65387;SDS011;51992;53.528;49.474;2022-12-18T14:58:49;4.13;;;3.72;;
65387;SDS011;51992;53.528;49.474;2022-12-18T15:04:04;3.60;;;3.30;;
65387;SDS011;51992;53.528;49.474;2022-12-18T15:08:57;3.80;;;3.40;;
65387;SDS011;51992;53.528;49.474;2022-12-18T15:11:27;3.50;;;3.20;;
65387;SDS011;51992;53.528;49.474;2022-12-18T15:13:53;3.38;;;3.08;;
65387;SDS011;51992;53.528;49.474;2022-12-18T15:16:19;3.30;;;3.00;;
65387;SDS011;51992;53.528;49.474;2022-12-18T15:18:46;2.90;;;2.70;;
65387;SDS011;51992;53.528;49.474;2022-12-18T15:21:17;2.78;;;2.58;;
65387;SDS011;51992;53.528;49.474;2022-12-18T15:26:10;2.72;;;2.53;;
65387;SDS011;51992;53.528;49.474;2022-12-18T15:28:38;1.75;;;1.65;;
65387;SDS011;51992;53.528;49.474;2022-12-18T15:33:31;2.05;;;1.85;;
65387;SDS011;51992;53.528;49.474;2022-12-18T15:36:00;2.10;;;2.00;;
65387;SDS011;51992;53.528;49.474;2022-12-18T15:38:27;2.17;;;1.98;;
65387;SDS011;51992;53.528;49.474;2022-12-18T15:40:53;1.67;;;1.58;;
65387;SDS011;51992;53.528;49.474;2022-12-18T15:43:20;1.48;;;1.38;;
65387;SDS011;51992;53.528;49.474;2022-12-18T15:46:06;1.75;;;1.65;;
65387;SDS011;51992;53.528;49.474;2022-12-18T15:48:33;1.75;;;1.58;;
65387;SDS011;51992;53.528;49.474;2022-12-18T15:50:59;1.80;;;1.70;;
65387;SDS011;51992;53.528;49.474;2022-12-18T15:53:26;1.60;;;1.50;;
65387;SDS011;51992;53.528;49.474;2022-12-18T15:55:53;1.60;;;1.50;;
65387;SDS011;51992;53.528;49.474;2022-12-18T15:58:37;1.48;;;1.38;;
65387;SDS011;51992;53.528;49.474;2022-12-18T16:01:03;1.88;;;1.77;;
65387;SDS011;51992;53.528;49.474;2022-12-18T16:03:29;1.67;;;1.58;;
65387;SDS011;51992;53.528;49.474;2022-12-18T16:05:55;1.73;;;1.63;;
65387;SDS011;51992;53.528;49.474;2022-12-18T16:08:20;2.38;;;2.17;;
65387;SDS011;51992;53.528;49.474;2022-12-18T16:10:46;2.00;;;1.90;;
65387;SDS011;51992;53.528;49.474;2022-12-18T16:13:12;2.65;;;2.25;;
65387;SDS011;51992;53.528;49.474;2022-12-18T16:15:41;2.60;;;2.40;;
65387;SDS011;51992;53.528;49.474;2022-12-18T16:18:07;2.63;;;2.20;;
65387;SDS011;51992;53.528;49.474;2022-12-18T16:20:32;2.70;;;2.50;;
65387;SDS011;51992;53.528;49.474;2022-12-18T16:22:59;3.03;;;2.83;;
65387;SDS011;51992;53.528;49.474;2022-12-18T16:25:26;4.22;;;2.80;;
65387;SDS011;51992;53.528;49.474;2022-12-18T16:27:52;3.40;;;3.10;;
65387;SDS011;51992;53.528;49.474;2022-12-18T16:30:19;3.90;;;3.50;;